Terminal Aerodrome Forecast
Issued by NWS Charleston, WV

Current Version | Previous Version | Graphics & Text | Print | Product List | Glossary On
Versions: 1 2 3 4 5 6 7 8 9 10 11 12 13 14 15 16 17 18 19 20 21 22 23
000
FTUS41 KRLX 161400 AAA
TAFCRW
TAF AMD
KCRW 161406Z 1614/1712 35003KT P6SM FEW004 BKN015 OVC035
     FM161700 35005KT P6SM SCT015 OVC025
     FM161900 35004KT P6SM SCT025
     FM170200 00000KT 6SM BR SCT040
     FM170600 00000KT 1 1/2SM BR SCT003
     FM170800 00000KT 1/2SM FG VV001=

USA.gov is the U.S. government's official web portal to all federal, state and local government web resources and services.